Time;durP1;ratioP1;P1;durP2;ratioP2;P2;SDS_P1;SDS_P2;PMS_P1;PMS_P2;Temp;Humidity;BMP_temperature;BMP_pressure;BME280_temperature;BME280_humidity;BME280_pressure;Samples;Min_cycle;Max_cycle;Signal;HPM_P1;HPM_P2
2022/03/16 00:02:07;;;;;;;;;;;;;;;17.99;60.83;102081.34;4972923;28;1575;-36
2022/03/16 00:04:36;;;;;;;;;;;;;;;18.08;60.34;102083.47;4974679;28;1360;-35
2022/03/16 00:07:05;;;;;;;;;;;;;;;18.16;59.98;102099.00;4974310;28;1305;-35
2022/03/16 00:09:34;;;;;;;;;;;;;;;18.23;60.22;102105.72;4974702;28;1677;-35
2022/03/16 00:12:01;;;;;;;;;;;;;;;18.27;59.29;102091.16;4974933;28;1945;-36
2022/03/16 00:14:30;;;;;;;;;;;;;;;18.33;60.07;102105.13;4974646;28;1906;-35
2022/03/16 00:17:00;;;;;;;;;;;;;;;18.35;60.05;102098.72;4974467;28;1434;-35
2022/03/16 00:19:29;;;;;;;;;;;;;;;18.32;59.86;102090.00;4974056;28;1555;-35
2022/03/16 00:21:59;;;;;;;;;;;;;;;18.29;59.71;102081.22;4974147;28;1536;-35
2022/03/16 00:24:39;;;;;;;;;;;;;;;18.31;60.02;102093.66;4974798;28;1981;-35
2022/03/16 00:27:07;;;;;;;;;;;;;;;18.25;59.29;102082.38;4974224;28;1634;-35
2022/03/16 00:29:35;;;;;;;;;;;;;;;18.19;59.63;102085.44;4974574;28;1788;-35
2022/03/16 00:32:12;;;;;;;;;;;;;;;18.14;59.56;102062.59;4974073;28;1777;-37
2022/03/16 00:34:42;;;;;;;;;;;;;;;18.13;59.66;102064.44;4973949;28;1910;-35
2022/03/16 00:37:12;;;;;;;;;;;;;;;18.05;59.62;102050.69;4974450;28;1894;-35
2022/03/16 00:39:48;;;;;;;;;;;;;;;18.03;59.71;102053.44;4973988;28;1410;-35
2022/03/16 00:42:17;;;;;;;;;;;;;;;17.96;59.86;102030.69;4974338;28;1788;-35
2022/03/16 00:44:45;;;;;;;;;;;;;;;17.96;60.04;102029.84;4974392;28;1076;-35
2022/03/16 00:47:13;;;;;;;;;;;;;;;17.95;60.11;102038.84;4974166;28;1950;-35
2022/03/16 00:49:42;;;;;;;;;;;;;;;17.89;60.01;102016.84;4974145;28;1772;-35
2022/03/16 00:52:10;;;;;;;;;;;;;;;17.90;60.06;102017.69;4974216;28;1393;-35
2022/03/16 00:54:40;;;;;;;;;;;;;;;17.85;60.04;102027.84;4965788;28;1903;-35
2022/03/16 00:57:10;;;;;;;;;;;;;;;17.86;60.02;102021.53;4974467;28;1626;-35
2022/03/16 00:59:44;;;;;;;;;;;;;;;17.79;59.87;102002.31;4974462;28;1970;-35
2022/03/16 01:02:11;;;;;;;;;;;;;;;17.82;60.34;102028.84;4973572;28;1962;-35
2022/03/16 01:04:40;;;;;;;;;;;;;;;17.80;60.13;102022.75;4974147;28;2014;-35
2022/03/16 01:07:09;;;;;;;;;;;;;;;17.79;59.97;102002.31;4973974;28;1769;-35
2022/03/16 01:09:36;;;;;;;;;;;;;;;17.75;60.21;102008.81;4973986;28;1772;-35
2022/03/16 01:12:03;;;;;;;;;;;;;;;17.76;60.04;102009.66;4977979;28;1807;-36
2022/03/16 01:14:30;;;;;;;;;;;;;;;17.74;60.12;102014.25;4978188;28;1968;-35
2022/03/16 01:17:00;;;;;;;;;;;;;;;17.70;60.09;102001.06;4977390;28;1664;-35
2022/03/16 01:19:29;;;;;;;;;;;;;;;17.70;59.99;102008.22;4977276;28;1581;-35
2022/03/16 01:21:57;;;;;;;;;;;;;;;17.68;60.00;102015.50;4977283;28;1333;-35
2022/03/16 01:24:24;;;;;;;;;;;;;;;17.66;60.25;102014.72;4977522;28;1626;-35
2022/03/16 01:26:54;;;;;;;;;;;;;;;17.70;60.12;102009.09;4977401;28;1715;-36
2022/03/16 01:29:22;;;;;;;;;;;;;;;17.65;59.55;101992.47;4977370;28;1711;-35
2022/03/16 01:31:57;;;;;;;;;;;;;;;17.77;59.72;101998.03;4977161;28;1750;-35
2022/03/16 01:34:26;;;;;;;;;;;;;;;17.87;60.06;101991.16;4964925;28;1914;-35
2022/03/16 01:36:52;;;;;;;;;;;;;;;17.91;59.62;101990.00;4977216;28;2230;-35
2022/03/16 01:39:20;;;;;;;;;;;;;;;17.91;60.04;101983.78;4976584;28;1822;-36
2022/03/16 01:41:49;;;;;;;;;;;;;;;17.95;59.31;101982.63;4977356;28;1933;-35
2022/03/16 01:44:19;;;;;;;;;;;;;;;18.00;59.36;101999.25;4977674;28;1032;-35
2022/03/16 01:46:48;;;;;;;;;;;;;;;17.99;58.31;101976.97;4976769;28;1632;-35
2022/03/16 01:49:18;;;;;;;;;;;;;;;18.04;58.44;101974.00;4977315;28;1834;-35
2022/03/16 01:51:47;;;;;;;;;;;;;;;18.02;58.77;101965.19;4977140;28;1273;-35
2022/03/16 01:54:16;;;;;;;;;;;;;;;18.12;58.48;101971.66;4977016;28;1958;-36
2022/03/16 01:56:47;;;;;;;;;;;;;;;18.05;58.56;101965.03;4977074;28;1768;-35
2022/03/16 01:59:21;;;;;;;;;;;;;;;18.04;58.44;101979.34;4971335;28;1739;-36
2022/03/16 02:01:49;;;;;;;;;;;;;;;18.01;59.04;101963.50;4964853;28;1770;-35
2022/03/16 02:04:21;;;;;;;;;;;;;;;17.99;58.59;101987.69;4976615;28;1811;-35
2022/03/16 02:06:47;;;;;;;;;;;;;;;17.97;58.99;101978.03;4976001;28;1652;-35
2022/03/16 02:09:14;;;;;;;;;;;;;;;17.95;59.06;101959.41;4976652;28;1454;-36
2022/03/16 02:11:40;;;;;;;;;;;;;;;17.97;59.41;101952.13;4976390;28;1771;-36
2022/03/16 02:14:08;;;;;;;;;;;;;;;17.92;59.60;101959.59;4976853;28;1911;-35
2022/03/16 02:16:35;;;;;;;;;;;;;;;17.94;59.36;101968.38;4966177;28;1957;-35
2022/03/16 02:19:10;;;;;;;;;;;;;;;17.87;59.47;101946.50;4976404;28;2020;-36
2022/03/16 02:21:46;;;;;;;;;;;;;;;17.87;59.36;101946.50;4975187;28;1579;-35
2022/03/16 02:24:16;;;;;;;;;;;;;;;17.84;59.58;101944.03;4965075;28;1775;-35
2022/03/16 02:26:45;;;;;;;;;;;;;;;17.81;59.48;101930.81;4976246;28;1592;-35
2022/03/16 02:29:20;;;;;;;;;;;;;;;17.81;59.72;101919.28;4962081;28;1080;-35
2022/03/16 02:31:50;;;;;;;;;;;;;;;17.81;59.57;101941.53;4976216;28;1938;-35
2022/03/16 02:34:18;;;;;;;;;;;;;;;17.81;59.62;101946.88;4976310;28;1906;-36
2022/03/16 02:36:47;;;;;;;;;;;;;;;17.80;60.02;101928.25;4976280;28;1801;-35
2022/03/16 02:39:19;;;;;;;;;;;;;;;17.88;59.98;101931.31;4977010;28;1655;-36
2022/03/16 02:41:52;;;;;;;;;;;;;;;17.99;59.52;101938.66;4974413;28;1670;-35
2022/03/16 02:44:20;;;;;;;;;;;;;;;18.07;59.29;101923.78;4976590;28;1085;-35
2022/03/16 02:46:49;;;;;;;;;;;;;;;18.16;58.97;101919.63;4975781;28;1955;-35
2022/03/16 02:49:19;;;;;;;;;;;;;;;18.17;59.02;101913.34;4975914;28;1627;-35
2022/03/16 02:51:48;;;;;;;;;;;;;;;18.22;58.86;101921.06;4976377;28;2126;-36
2022/03/16 02:54:18;;;;;;;;;;;;;;;18.22;58.38;101905.88;4975539;28;1910;-35
2022/03/16 02:56:47;;;;;;;;;;;;;;;18.25;58.39;101902.97;4963212;28;1938;-36
2022/03/16 02:59:17;;;;;;;;;;;;;;;18.25;58.93;101919.03;4976071;28;1803;-35
2022/03/16 03:01:53;;;;;;;;;;;;;;;18.24;58.59;101903.06;5067346;23;3525;-35
2022/03/16 03:04:20;;;;;;;;;;;;;;;18.20;58.65;101910.44;4953269;29;1441;-35
2022/03/16 03:06:49;;;;;;;;;;;;;;;18.20;58.65;101905.09;4951199;28;1847;-35
2022/03/16 03:09:19;;;;;;;;;;;;;;;18.17;58.68;101886.56;4955122;29;1372;-35
2022/03/16 03:11:49;;;;;;;;;;;;;;;18.17;58.35;101880.38;4955917;29;1979;-36
2022/03/16 03:14:18;;;;;;;;;;;;;;;18.20;58.28;101899.72;4950027;29;1907;-35
2022/03/16 03:16:47;;;;;;;;;;;;;;;18.13;58.57;101876.19;4952955;29;1778;-35
2022/03/16 03:19:15;;;;;;;;;;;;;;;18.07;58.72;101874.75;4945833;29;1069;-35
2022/03/16 03:21:43;;;;;;;;;;;;;;;18.06;58.63;101875.72;4947120;29;2022;-35
2022/03/16 03:24:12;;;;;;;;;;;;;;;18.08;58.42;101884.50;4951079;29;2017;-35
2022/03/16 03:26:44;;;;;;;;;;;;;;;18.01;58.56;101899.25;4949120;29;1756;-36
2022/03/16 03:29:14;;;;;;;;;;;;;;;17.94;58.52;101865.81;4950536;29;1823;-35
2022/03/16 03:31:41;;;;;;;;;;;;;;;17.92;58.45;101867.75;4955011;29;1732;-35
2022/03/16 03:34:08;;;;;;;;;;;;;;;17.87;58.61;101868.91;4952660;28;1903;-36
2022/03/16 03:36:36;;;;;;;;;;;;;;;17.86;57.62;101874.34;4951947;29;1663;-36
2022/03/16 03:39:04;;;;;;;;;;;;;;;17.84;58.52;101866.44;4942870;29;1702;-36
2022/03/16 03:41:31;;;;;;;;;;;;;;;17.84;58.31;101877.13;4953704;29;1747;-35
2022/03/16 03:44:01;;;;;;;;;;;;;;;17.79;58.16;101868.53;4954770;29;1932;-35
2022/03/16 03:46:28;;;;;;;;;;;;;;;17.73;58.11;101844.84;4954346;29;1857;-35
2022/03/16 03:48:58;;;;;;;;;;;;;;;17.76;58.06;101857.16;4955241;29;2086;-35
2022/03/16 03:51:33;;;;;;;;;;;;;;;17.72;57.97;101853.81;4937196;29;1620;-36
2022/03/16 03:53:59;;;;;;;;;;;;;;;17.72;58.21;101835.09;4943844;29;1907;-36
2022/03/16 03:56:27;;;;;;;;;;;;;;;17.69;58.24;101846.88;4954925;29;1640;-36
2022/03/16 03:59:02;;;;;;;;;;;;;;;17.70;58.03;101834.34;4946414;29;1948;-35
2022/03/16 04:01:31;;;;;;;;;;;;;;;17.69;57.67;101824.63;4953598;28;1886;-36
2022/03/16 04:04:07;;;;;;;;;;;;;;;17.70;58.16;101837.03;4946190;29;1259;-35
2022/03/16 04:06:37;;;;;;;;;;;;;;;17.69;57.79;101827.28;4942054;29;1618;-35
2022/03/16 04:09:04;;;;;;;;;;;;;;;17.65;57.96;101801.72;4954673;29;1278;-35
2022/03/16 04:11:31;;;;;;;;;;;;;;;17.64;58.32;101816.88;4940587;29;1420;-36
2022/03/16 04:14:01;;;;;;;;;;;;;;;17.62;58.96;101817.94;4946140;29;1903;-36
2022/03/16 04:16:30;;;;;;;;;;;;;;;17.64;59.14;101816.03;4939481;29;1402;-35
2022/03/16 04:19:09;;;;;;;;;;;;;;;17.59;59.17;101815.50;4945141;29;1801;-35
2022/03/16 04:21:39;;;;;;;;;;;;;;;17.65;58.95;101809.72;4939404;29;1672;-35
2022/03/16 04:24:12;;;;;;;;;;;;;;;17.63;59.27;101800.94;4950872;29;1277;-37
2022/03/16 04:26:40;;;;;;;;;;;;;;;17.62;58.93;101809.91;4941024;29;1808;-35
2022/03/16 04:29:16;;;;;;;;;;;;;;;17.59;59.05;101812.81;4955699;29;1403;-35
2022/03/16 04:31:46;;;;;;;;;;;;;;;17.60;58.73;101817.19;4952859;29;1598;-35
2022/03/16 04:34:18;;;;;;;;;;;;;;;17.66;58.75;101814.09;4942821;29;1991;-35
2022/03/16 04:36:47;;;;;;;;;;;;;;;17.66;58.57;101800.72;4954537;29;1613;-36
2022/03/16 04:39:14;;;;;;;;;;;;;;;17.68;58.66;101801.47;4941995;29;1485;-35
2022/03/16 04:41:40;;;;;;;;;;;;;;;17.71;58.70;101795.94;4954821;28;1596;-36
2022/03/16 04:44:09;;;;;;;;;;;;;;;17.74;58.38;101805.56;4955489;28;1647;-35
2022/03/16 04:46:36;;;;;;;;;;;;;;;17.83;58.20;101797.84;4956928;29;1814;-35
2022/03/16 04:51:46;;;;;;;;;;;;;;;17.92;58.36;101774.94;4945902;29;2636;-35
2022/03/16 04:54:16;;;;;;;;;;;;;;;18.00;58.22;101779.78;4944725;29;1942;-35
2022/03/16 04:56:51;;;;;;;;;;;;;;;18.03;58.04;101776.91;4954297;28;1671;-35
2022/03/16 04:59:21;;;;;;;;;;;;;;;18.11;57.43;101781.75;4944365;29;1057;-35
2022/03/16 05:01:50;;;;;;;;;;;;;;;18.11;57.55;101787.94;4942803;28;1735;-35
2022/03/16 05:04:17;;;;;;;;;;;;;;;18.09;57.85;101773.81;4956824;29;1502;-35
2022/03/16 05:06:49;;;;;;;;;;;;;;;18.07;57.58;101775.72;4950432;29;1075;-35
2022/03/16 05:09:17;;;;;;;;;;;;;;;18.09;57.42;101766.63;4957480;29;1822;-35
2022/03/16 05:11:47;;;;;;;;;;;;;;;18.07;57.73;101770.38;4951527;29;1822;-36
2022/03/16 05:14:17;;;;;;;;;;;;;;;18.06;57.39;101772.22;4954791;29;1938;-35
2022/03/16 05:16:46;;;;;;;;;;;;;;;18.00;57.19;101769.06;4946410;28;1517;-35
2022/03/16 05:19:16;;;;;;;;;;;;;;;17.98;57.37;101766.50;4944280;29;1784;-35
2022/03/16 05:21:45;;;;;;;;;;;;;;;17.99;57.61;101783.44;4957576;29;1533;-35
2022/03/16 05:24:19;;;;;;;;;;;;;;;17.99;57.47;101778.94;4944322;29;1490;-36
2022/03/16 05:26:46;;;;;;;;;;;;;;;17.89;57.86;101778.69;4941490;29;1612;-36
2022/03/16 05:29:14;;;;;;;;;;;;;;;17.88;57.77;101776.97;4949804;29;1131;-35
2022/03/16 05:31:41;;;;;;;;;;;;;;;17.85;57.93;101776.34;4944690;29;1436;-35
2022/03/16 05:34:10;;;;;;;;;;;;;;;17.80;57.57;101757.00;4944886;28;1914;-35
2022/03/16 05:36:40;;;;;;;;;;;;;;;17.76;58.01;101775.06;4955882;29;1550;-36
2022/03/16 05:39:07;;;;;;;;;;;;;;;17.77;57.95;101770.59;4939315;29;1412;-35
2022/03/16 05:41:35;;;;;;;;;;;;;;;17.77;57.75;101763.44;4956276;29;1626;-35
2022/03/16 05:44:06;;;;;;;;;;;;;;;17.97;57.66;101772.81;4956775;29;1692;-32
2022/03/16 05:46:35;;;;;;;;;;;;;;;18.49;56.87;101765.69;4942979;29;1653;-31
2022/03/16 05:49:02;;;;;;;;;;;;;;;18.84;57.33;101756.97;4956303;29;2054;-31
2022/03/16 05:51:31;;;;;;;;;;;;;;;19.02;55.95;101771.75;4950139;29;1698;-31
2022/03/16 05:53:59;;;;;;;;;;;;;;;19.15;57.01;101784.25;4956605;29;1668;-31
2022/03/16 05:56:27;;;;;;;;;;;;;;;19.30;55.54;101793.88;4956688;28;1898;-31
2022/03/16 05:58:59;;;;;;;;;;;;;;;19.47;57.07;101797.97;4954575;29;1997;-31
2022/03/16 06:01:26;;;;;;;;;;;;;;;19.54;56.91;101803.78;4954904;28;1533;-31
2022/03/16 06:03:54;;;;;;;;;;;;;;;19.60;57.18;101793.44;4955562;29;2072;-31
2022/03/16 06:06:29;;;;;;;;;;;;;;;19.55;55.85;101789.38;4945744;28;1658;-31
2022/03/16 06:08:57;;;;;;;;;;;;;;;19.51;56.19;101786.06;4951331;29;1846;-32
2022/03/16 06:11:34;;;;;;;;;;;;;;;19.68;56.57;101791.03;4949144;29;1257;-31
2022/03/16 06:14:06;;;;;;;;;;;;;;;19.70;56.68;101795.44;4956582;29;1858;-31
2022/03/16 06:16:36;;;;;;;;;;;;;;;19.48;56.21;101780.94;4955864;29;1980;-31
2022/03/16 06:19:05;;;;;;;;;;;;;;;19.38;56.49;101798.69;4956141;29;1541;-31
2022/03/16 06:21:31;;;;;;;;;;;;;;;19.25;57.85;101772.75;4951444;28;1651;-31
2022/03/16 06:24:01;;;;;;;;;;;;;;;19.25;58.30;101770.06;4937920;29;1996;-31
2022/03/16 06:26:29;;;;;;;;;;;;;;;19.22;57.00;101775.66;4949102;29;1061;-31
2022/03/16 06:28:57;;;;;;;;;;;;;;;19.23;58.09;101766.63;4937256;29;1593;-31
2022/03/16 06:31:29;;;;;;;;;;;;;;;19.26;57.93;101760.22;4950867;29;1720;-30
2022/03/16 06:33:59;;;;;;;;;;;;;;;19.05;58.11;101757.25;4955090;29;2064;-31
2022/03/16 06:36:27;;;;;;;;;;;;;;;19.13;57.81;101757.56;4956313;29;1906;-31
2022/03/16 06:38:57;;;;;;;;;;;;;;;18.99;57.70;101741.63;4955207;29;1445;-31
2022/03/16 06:41:26;;;;;;;;;;;;;;;18.90;58.46;101755.69;4944701;29;1001;-31
2022/03/16 06:43:55;;;;;;;;;;;;;;;18.91;58.87;101734.13;4952960;29;1579;-31
2022/03/16 06:49:08;;;;;;;;;;;;;;;18.83;59.36;101747.25;4955031;29;2467;-32
2022/03/16 06:51:37;;;;;;;;;;;;;;;18.77;59.91;101756.53;4953796;29;1546;-31
2022/03/16 06:54:06;;;;;;;;;;;;;;;18.78;59.92;101750.22;4948874;29;1562;-31
2022/03/16 06:56:35;;;;;;;;;;;;;;;18.69;59.48;101746.38;4956011;29;1895;-32
2022/03/16 06:59:03;;;;;;;;;;;;;;;18.66;59.70;101757.31;4951876;29;1732;-32
2022/03/16 07:01:30;;;;;;;;;;;;;;;18.88;59.23;101755.81;4955059;28;1596;-32
2022/03/16 07:06:52;;;;;;;;;;;;;;;18.74;59.22;101750.53;4951669;29;1795;-32
2022/03/16 07:09:20;;;;;;;;;;;;;;;18.87;58.98;101754.09;4951337;28;1742;-33
2022/03/16 07:11:46;;;;;;;;;;;;;;;18.81;58.98;101744.66;4952062;29;1377;-32
2022/03/16 07:16:56;;;;;;;;;;;;;;;18.86;58.13;101742.53;4952431;29;1914;-32
2022/03/16 07:19:23;;;;;;;;;;;;;;;18.84;58.68;101739.09;4953535;29;1745;-31
2022/03/16 07:21:49;;;;;;;;;;;;;;;18.78;58.71;101730.59;4953067;29;1293;-32
2022/03/16 07:24:16;;;;;;;;;;;;;;;18.79;58.36;101735.00;4948843;29;1519;-32
2022/03/16 07:26:44;;;;;;;;;;;;;;;18.81;57.64;101733.09;4951967;29;1328;-31
2022/03/16 07:29:10;;;;;;;;;;;;;;;18.92;58.06;101722.47;4952496;29;1393;-31
2022/03/16 07:31:37;;;;;;;;;;;;;;;18.83;58.65;101725.81;4948912;29;1804;-34
2022/03/16 07:34:06;;;;;;;;;;;;;;;18.78;59.25;101730.59;4953179;29;1625;-31
2022/03/16 07:36:35;;;;;;;;;;;;;;;18.72;59.04;101723.00;4952955;29;1906;-31
2022/03/16 07:39:02;;;;;;;;;;;;;;;18.81;59.57;101717.03;4948555;29;1896;-31
2022/03/16 07:41:39;;;;;;;;;;;;;;;18.71;59.14;101715.94;4953581;29;1650;-31
2022/03/16 07:44:21;;;;;;;;;;;;;;;18.68;59.08;101723.22;4954133;28;1093;-31
2022/03/16 07:46:49;;;;;;;;;;;;;;;18.66;59.20;101724.28;4953939;29;1662;-32
2022/03/16 07:49:16;;;;;;;;;;;;;;;18.66;59.15;101740.34;4952332;29;1416;-31
2022/03/16 07:54:33;;;;;;;;;;;;;;;18.70;59.10;101728.47;4953406;29;1474;-31
2022/03/16 07:57:01;;;;;;;;;;;;;;;18.82;58.14;101734.78;4951367;29;1910;-32
2022/03/16 07:59:36;;;;;;;;;;;;;;;18.86;58.63;101731.81;4951902;29;1365;-32
2022/03/16 08:02:05;;;;;;;;;;;;;;;18.95;58.31;101730.25;4950015;28;1557;-32
2022/03/16 08:04:32;;;;;;;;;;;;;;;18.98;58.69;101732.75;4952883;29;1434;-33
2022/03/16 08:09:40;;;;;;;;;;;;;;;19.08;59.48;101743.66;4951658;28;1733;-32
2022/03/16 08:12:06;;;;;;;;;;;;;;;19.12;59.63;101728.16;4952875;29;1498;-31
2022/03/16 08:14:34;;;;;;;;;;;;;;;19.16;59.44;101722.47;4952670;29;1552;-31
2022/03/16 08:17:01;;;;;;;;;;;;;;;19.15;58.85;101723.44;4951656;29;1915;-31
2022/03/16 08:19:27;;;;;;;;;;;;;;;19.10;58.70;101712.22;4949477;29;1939;-31
2022/03/16 08:21:55;;;;;;;;;;;;;;;19.06;57.97;101716.09;4952620;29;1871;-32
2022/03/16 08:27:02;;;;;;;;;;;;;;;19.12;58.14;101720.13;4954104;28;2487;-31
2022/03/16 08:29:32;;;;;;;;;;;;;;;19.07;57.51;101715.09;4953820;29;1416;-32
2022/03/16 08:32:00;;;;;;;;;;;;;;;19.13;58.29;101717.34;4950744;28;1661;-31
2022/03/16 08:34:26;;;;;;;;;;;;;;;18.97;57.96;101716.75;4943657;29;1691;-32
2022/03/16 08:36:53;;;;;;;;;;;;;;;18.66;57.64;101706.41;4952544;29;1954;-32
2022/03/16 08:39:19;;;;;;;;;;;;;;;18.71;58.33;101708.75;4951649;29;2075;-31
2022/03/16 08:41:46;;;;;;;;;;;;;;;18.62;58.68;101702.25;4945376;29;1966;-32
2022/03/16 08:44:12;;;;;;;;;;;;;;;18.58;58.74;101683.81;4944379;29;1787;-32
2022/03/16 08:46:39;;;;;;;;;;;;;;;18.57;58.35;101706.22;4944716;29;1809;-31
2022/03/16 08:49:06;;;;;;;;;;;;;;;18.53;58.31;101697.53;4944981;29;1473;-32
2022/03/16 08:51:33;;;;;;;;;;;;;;;18.54;58.87;101699.22;4948767;29;1563;-32
2022/03/16 08:53:59;;;;;;;;;;;;;;;18.51;58.83;101699.47;4949093;29;1657;-31
2022/03/16 08:56:26;;;;;;;;;;;;;;;18.45;59.15;101694.56;4949489;29;1911;-31
2022/03/16 08:58:52;;;;;;;;;;;;;;;18.39;59.51;101700.34;4949071;29;1955;-32
2022/03/16 09:01:19;;;;;;;;;;;;;;;18.41;59.56;101688.56;4953342;28;2016;-31
2022/03/16 09:03:45;;;;;;;;;;;;;;;18.36;59.50;101695.19;4943241;29;1738;-31
2022/03/16 09:06:13;;;;;;;;;;;;;;;18.31;59.26;101686.66;4950614;29;1750;-31
2022/03/16 09:08:43;;;;;;;;;;;;;;;18.31;58.65;101683.97;4950390;29;1610;-31
2022/03/16 09:11:09;;;;;;;;;;;;;;;18.28;59.59;101691.25;4953326;29;1833;-31
2022/03/16 09:13:36;;;;;;;;;;;;;;;18.44;59.53;101690.16;4948929;29;1767;-31
2022/03/16 09:16:06;;;;;;;;;;;;;;;18.58;59.19;101684.69;4953774;29;1910;-31
2022/03/16 09:18:34;;;;;;;;;;;;;;;18.63;59.64;101695.06;4953517;29;1912;-32
2022/03/16 09:21:02;;;;;;;;;;;;;;;18.79;59.29;101687.66;4952009;29;1002;-31
2022/03/16 09:23:34;;;;;;;;;;;;;;;18.77;59.39;101680.66;4945210;29;1731;-31
2022/03/16 09:26:05;;;;;;;;;;;;;;;18.89;58.81;101685.16;4947180;29;2014;-32
2022/03/16 09:28:34;;;;;;;;;;;;;;;18.95;58.78;101675.81;4950571;28;1984;-31
2022/03/16 09:31:03;;;;;;;;;;;;;;;19.01;58.60;101665.47;4954691;28;1896;-31
2022/03/16 09:33:31;;;;;;;;;;;;;;;19.11;58.65;101664.81;4955833;29;1574;-31
2022/03/16 09:36:00;;;;;;;;;;;;;;;19.18;59.05;101676.75;4954727;29;1970;-33
2022/03/16 09:38:26;;;;;;;;;;;;;;;19.22;58.61;101667.56;4956323;29;1742;-32
2022/03/16 09:41:06;;;;;;;;;;;;;;;19.38;58.87;101656.53;4954675;29;2110;-32
2022/03/16 09:43:37;;;;;;;;;;;;;;;19.51;58.01;101651.06;4943816;29;1683;-32
2022/03/16 09:46:11;;;;;;;;;;;;;;;19.56;58.41;101648.91;4956594;29;1579;-32
2022/03/16 09:48:43;;;;;;;;;;;;;;;19.66;57.89;101641.84;4951949;29;1594;-31
2022/03/16 09:51:11;;;;;;;;;;;;;;;19.66;57.54;101644.53;4950326;29;1610;-31
2022/03/16 09:53:48;;;;;;;;;;;;;;;19.60;57.73;101645.00;4956021;29;1502;-32
2022/03/16 09:56:21;;;;;;;;;;;;;;;19.62;58.34;101646.59;4956668;29;1977;-32
2022/03/16 09:58:50;;;;;;;;;;;;;;;19.58;58.03;101658.53;4952056;28;1497;-32
2022/03/16 10:01:18;;;;;;;;;;;;;;;19.56;58.25;101656.94;4954913;28;1507;-32
2022/03/16 10:03:50;;;;;;;;;;;;;;;19.38;58.79;101660.06;4956609;29;1678;-32
2022/03/16 10:06:18;;;;;;;;;;;;;;;19.38;59.05;101656.53;4954899;29;1505;-32
2022/03/16 10:13:13;;;;;;;;;;;;;;;19.30;59.73;101653.53;4956482;29;1863;-31
2022/03/16 10:14:25;;;;;;;;;;;;;;;19.02;59.91;101644.88;4943252;29;903;-32
2022/03/16 10:20:09;;;;;;;;;;;;;;;18.96;60.39;101643.53;4939618;29;2761;-32
2022/03/16 10:22:38;;;;;;;;;;;;;;;18.99;60.09;101651.34;4949603;29;1970;-34
2022/03/16 10:25:06;;;;;;;;;;;;;;;18.95;59.66;101644.50;4955259;29;1807;-31
2022/03/16 10:27:36;;;;;;;;;;;;;;;18.87;59.76;101626.28;4953756;29;1561;-31
2022/03/16 10:30:11;;;;;;;;;;;;;;;18.84;59.97;101625.66;4956746;29;1498;-32
2022/03/16 10:32:39;;;;;;;;;;;;;;;18.87;60.23;101609.38;4955347;29;1753;-31
2022/03/16 10:35:06;;;;;;;;;;;;;;;18.55;57.70;101617.06;4955483;29;1563;-31
2022/03/16 10:37:36;;;;;;;;;;;;;;;18.48;58.51;101619.31;4951634;29;1974;-31
2022/03/16 10:40:18;;;;;;;;;;;;;;;18.61;59.04;101614.78;4952848;29;1915;-31
2022/03/16 10:48:26;;;;;;;;;;;;;;;18.76;58.40;101606.59;4950588;29;900;-30
2022/03/16 10:50:57;;;;;;;;;;;;;;;18.98;57.31;101616.59;4944452;29;1885;-31
2022/03/16 10:53:28;;;;;;;;;;;;;;;19.06;58.39;101614.22;4953342;29;1744;-31
2022/03/16 10:55:57;;;;;;;;;;;;;;;19.19;57.58;101614.13;4953737;28;1988;-31
2022/03/16 10:58:47;;;;;;;;;;;;;;;19.29;58.47;101615.16;4953671;29;1944;-31
2022/03/16 11:01:16;;;;;;;;;;;;;;;19.35;58.24;101619.19;4951573;29;1801;-32
2022/03/16 11:03:47;;;;;;;;;;;;;;;19.38;57.58;101624.34;4951579;29;1577;-32
2022/03/16 11:06:15;;;;;;;;;;;;;;;19.33;58.36;101624.66;4939228;29;1699;-32
2022/03/16 11:08:46;;;;;;;;;;;;;;;19.36;57.56;101627.13;4953184;29;1700;-31
2022/03/16 11:14:00;;;;;;;;;;;;;;;19.33;57.46;101621.13;4950121;29;1735;-32
2022/03/16 11:16:33;;;;;;;;;;;;;;;19.33;58.34;101630.03;4953052;29;2024;-32
2022/03/16 11:19:03;;;;;;;;;;;;;;;19.32;57.73;101622.97;4956067;29;1813;-32
2022/03/16 11:21:38;;;;;;;;;;;;;;;19.27;58.25;101628.66;4943591;29;1763;-31
2022/03/16 11:24:18;;;;;;;;;;;;;;;19.24;58.19;101622.72;4955141;29;1598;-32
2022/03/16 11:27:09;;;;;;;;;;;;;;;19.21;57.92;101615.72;4955237;29;1946;-32
2022/03/16 11:29:44;;;;;;;;;;;;;;;19.21;58.47;101621.09;4938572;29;2155;-32
2022/03/16 11:32:16;;;;;;;;;;;;;;;19.18;57.49;101610.63;4955603;29;1756;-31
2022/03/16 11:34:47;;;;;;;;;;;;;;;19.17;58.02;101608.03;4953759;29;1507;-32
2022/03/16 11:37:17;;;;;;;;;;;;;;;19.10;57.88;101606.78;4955956;29;1977;-32
2022/03/16 11:39:44;;;;;;;;;;;;;;;19.07;57.86;101606.03;4946073;29;1490;-32
2022/03/16 11:42:13;;;;;;;;;;;;;;;19.10;58.36;101604.09;4950584;29;1793;-32
2022/03/16 11:44:40;;;;;;;;;;;;;;;19.07;58.21;101610.56;4955638;29;1761;-32
2022/03/16 11:47:38;;;;;;;;;;;;;;;18.98;58.23;101597.84;4948640;29;1731;-32
2022/03/16 11:50:13;;;;;;;;;;;;;;;18.96;59.22;101621.22;4891663;29;1802;-32
2022/03/16 11:53:04;;;;;;;;;;;;;;;18.92;58.34;101615.25;4944670;28;1883;-31
2022/03/16 11:55:52;;;;;;;;;;;;;;;18.91;58.64;101610.84;4949567;29;2003;-31
2022/03/16 11:58:31;;;;;;;;;;;;;;;18.89;59.18;101607.44;4954018;29;1967;-31
2022/03/16 12:01:18;;;;;;;;;;;;;;;18.77;58.83;101611.84;4946588;29;1763;-32
2022/03/16 12:03:46;;;;;;;;;;;;;;;18.79;58.58;101622.44;4946542;29;1583;-32
2022/03/16 12:06:32;;;;;;;;;;;;;;;18.74;59.18;101612.09;4950149;29;1642;-32
2022/03/16 12:09:04;;;;;;;;;;;;;;;18.80;59.53;101618.81;4951330;29;1851;-32
2022/03/16 12:14:58;;;;;;;;;;;;;;;18.76;58.63;101602.09;4927229;29;963;-31
2022/03/16 12:17:24;;;;;;;;;;;;;;;18.82;58.42;101603.47;4951085;29;1980;-31
2022/03/16 12:20:10;;;;;;;;;;;;;;;18.84;59.05;101609.59;4944270;29;1803;-33
2022/03/16 12:22:42;;;;;;;;;;;;;;;18.72;58.88;101610.47;4950785;29;1892;-31
2022/03/16 12:25:26;;;;;;;;;;;;;;;18.55;59.97;101596.50;4948826;29;1579;-32
2022/03/16 12:30:54;;;;;;;;;;;;;;;18.59;60.22;101600.66;4943565;29;1851;-32
2022/03/16 12:33:25;;;;;;;;;;;;;;;18.73;58.85;101593.44;4955270;29;1828;-32
2022/03/16 12:35:54;;;;;;;;;;;;;;;19.37;57.71;101593.97;4954786;29;1918;-31
2022/03/16 12:38:23;;;;;;;;;;;;;;;19.43;58.25;101593.47;4949536;29;1906;-31
2022/03/16 12:43:37;;;;;;;;;;;;;;;19.46;58.05;101585.22;4952699;29;1567;-32
2022/03/16 12:46:09;;;;;;;;;;;;;;;19.68;56.88;101595.13;4942390;29;2188;-32
2022/03/16 12:48:36;;;;;;;;;;;;;;;19.65;56.58;101581.09;4950541;29;1295;-32
2022/03/16 12:51:03;;;;;;;;;;;;;;;19.70;57.10;101597.69;4952954;29;1139;-32
2022/03/16 12:53:44;;;;;;;;;;;;;;;19.74;57.47;101588.47;4952020;29;1774;-32
2022/03/16 12:56:11;;;;;;;;;;;;;;;19.81;57.16;101597.72;4952515;29;1622;-32
2022/03/16 12:58:39;;;;;;;;;;;;;;;19.96;56.52;101592.16;4951468;29;1906;-32
2022/03/16 13:01:05;;;;;;;;;;;;;;;19.93;55.90;101592.38;4951992;29;1575;-32
2022/03/16 13:03:33;;;;;;;;;;;;;;;19.97;57.04;101580.41;4951844;28;2011;-32
2022/03/16 13:06:03;;;;;;;;;;;;;;;20.01;56.57;101589.94;4953823;28;1449;-32
2022/03/16 13:08:30;;;;;;;;;;;;;;;20.00;55.99;101588.25;4957037;28;1775;-32
2022/03/16 13:11:17;;;;;;;;;;;;;;;20.02;55.97;101586.28;4957525;29;1376;-32
2022/03/16 13:13:47;;;;;;;;;;;;;;;20.06;56.58;101596.66;4951092;29;1601;-31
2022/03/16 13:16:35;;;;;;;;;;;;;;;20.05;56.79;101594.97;4956120;29;1743;-31
2022/03/16 13:19:02;;;;;;;;;;;;;;;20.04;56.04;101600.44;4949288;29;1531;-32
2022/03/16 13:21:29;;;;;;;;;;;;;;;20.12;56.70;101592.63;4948462;29;1367;-32
2022/03/16 13:24:06;;;;;;;;;;;;;;;20.19;56.02;101595.66;4952339;29;1691;-33
2022/03/16 13:26:33;;;;;;;;;;;;;;;20.22;56.96;101598.97;4957754;29;1730;-33
2022/03/16 13:29:02;;;;;;;;;;;;;;;20.24;55.85;101590.78;4952296;29;1631;-33
2022/03/16 13:31:29;;;;;;;;;;;;;;;20.19;57.13;101591.16;4953906;29;1906;-32
2022/03/16 13:34:01;;;;;;;;;;;;;;;20.16;56.93;101586.03;4947390;29;1687;-33
2022/03/16 13:36:34;;;;;;;;;;;;;;;20.44;57.05;101592.69;4950979;29;1542;-32
2022/03/16 13:39:04;;;;;;;;;;;;;;;20.03;57.20;101594.22;4950645;29;1753;-32
2022/03/16 13:41:30;;;;;;;;;;;;;;;19.98;56.85;101569.56;4950024;29;1579;-32
2022/03/16 13:44:05;;;;;;;;;;;;;;;19.80;58.37;101590.66;4948117;29;1967;-32
2022/03/16 13:46:38;;;;;;;;;;;;;;;19.77;57.44;101585.53;4948459;29;1919;-32